sensor_id;sensor_type;location;lat;lon;timestamp;temperature;humidity
51922;DHT22;37948;53.260;6.394;2022-07-03T00:01:41;18.60;99.90
51922;DHT22;37948;53.260;6.394;2022-07-03T00:04:07;18.60;99.90
51922;DHT22;37948;53.260;6.394;2022-07-03T00:06:33;18.60;99.90
51922;DHT22;37948;53.260;6.394;2022-07-03T00:09:00;18.60;99.90
51922;DHT22;37948;53.260;6.394;2022-07-03T00:11:26;18.50;99.90
51922;DHT22;37948;53.260;6.394;2022-07-03T00:13:51;18.50;99.90
51922;DHT22;37948;53.260;6.394;2022-07-03T00:16:17;18.50;99.90
51922;DHT22;37948;53.260;6.394;2022-07-03T00:18:43;18.50;99.90
51922;DHT22;37948;53.260;6.394;2022-07-03T00:21:11;18.50;99.90
51922;DHT22;37948;53.260;6.394;2022-07-03T00:23:44;18.40;99.90
51922;DHT22;37948;53.260;6.394;2022-07-03T00:26:11;18.40;99.90
51922;DHT22;37948;53.260;6.394;2022-07-03T00:28:38;18.40;99.90
51922;DHT22;37948;53.260;6.394;2022-07-03T00:31:04;18.40;99.90
51922;DHT22;37948;53.260;6.394;2022-07-03T00:33:33;18.40;99.90
51922;DHT22;37948;53.260;6.394;2022-07-03T00:35:59;18.40;99.90
51922;DHT22;37948;53.260;6.394;2022-07-03T00:38:25;18.40;99.90
51922;DHT22;37948;53.260;6.394;2022-07-03T00:40:50;18.30;99.90
51922;DHT22;37948;53.260;6.394;2022-07-03T00:43:17;18.30;99.90
51922;DHT22;37948;53.260;6.394;2022-07-03T00:45:48;18.30;99.90
51922;DHT22;37948;53.260;6.394;2022-07-03T00:48:15;18.30;99.90
51922;DHT22;37948;53.260;6.394;2022-07-03T00:50:46;18.20;99.90
51922;DHT22;37948;53.260;6.394;2022-07-03T00:53:13;18.20;99.90
51922;DHT22;37948;53.260;6.394;2022-07-03T00:55:39;18.20;99.90
51922;DHT22;37948;53.260;6.394;2022-07-03T00:58:07;18.20;99.90
51922;DHT22;37948;53.260;6.394;2022-07-03T01:00:38;18.20;99.90
51922;DHT22;37948;53.260;6.394;2022-07-03T01:03:13;18.10;99.90
51922;DHT22;37948;53.260;6.394;2022-07-03T01:05:53;18.20;99.90
51922;DHT22;37948;53.260;6.394;2022-07-03T01:13:29;18.10;99.90
51922;DHT22;37948;53.260;6.394;2022-07-03T01:16:06;18.00;99.90
51922;DHT22;37948;53.260;6.394;2022-07-03T01:21:10;18.00;99.90
51922;DHT22;37948;53.260;6.394;2022-07-03T01:26:28;18.00;99.90
51922;DHT22;37948;53.260;6.394;2022-07-03T01:28:59;18.00;99.90
51922;DHT22;37948;53.260;6.394;2022-07-03T01:31:28;18.00;99.90
51922;DHT22;37948;53.260;6.394;2022-07-03T01:33:55;18.00;99.90
51922;DHT22;37948;53.260;6.394;2022-07-03T01:36:22;17.90;99.90
51922;DHT22;37948;53.260;6.394;2022-07-03T01:38:50;17.90;99.90
51922;DHT22;37948;53.260;6.394;2022-07-03T01:41:16;17.90;99.90
51922;DHT22;37948;53.260;6.394;2022-07-03T01:43:47;17.90;99.90
51922;DHT22;37948;53.260;6.394;2022-07-03T01:46:13;17.70;99.90
51922;DHT22;37948;53.260;6.394;2022-07-03T01:48:42;17.50;99.90
51922;DHT22;37948;53.260;6.394;2022-07-03T01:51:13;17.40;99.90
51922;DHT22;37948;53.260;6.394;2022-07-03T01:53:44;17.20;99.90
51922;DHT22;37948;53.260;6.394;2022-07-03T01:56:11;17.00;99.90
51922;DHT22;37948;53.260;6.394;2022-07-03T01:58:37;16.90;99.90
51922;DHT22;37948;53.260;6.394;2022-07-03T02:03:49;16.70;99.90
51922;DHT22;37948;53.260;6.394;2022-07-03T02:06:39;16.70;99.90
51922;DHT22;37948;53.260;6.394;2022-07-03T02:09:08;16.60;99.90
51922;DHT22;37948;53.260;6.394;2022-07-03T02:11:36;16.60;99.90
51922;DHT22;37948;53.260;6.394;2022-07-03T02:14:12;16.60;99.90
51922;DHT22;37948;53.260;6.394;2022-07-03T02:16:50;16.60;99.90
51922;DHT22;37948;53.260;6.394;2022-07-03T02:19:24;16.60;99.90
51922;DHT22;37948;53.260;6.394;2022-07-03T02:21:51;16.60;99.90
51922;DHT22;37948;53.260;6.394;2022-07-03T02:24:24;16.70;99.90
51922;DHT22;37948;53.260;6.394;2022-07-03T02:27:03;16.70;99.90
51922;DHT22;37948;53.260;6.394;2022-07-03T02:30:08;16.60;99.90
51922;DHT22;37948;53.260;6.394;2022-07-03T02:32:38;16.60;99.90
51922;DHT22;37948;53.260;6.394;2022-07-03T02:35:07;16.60;99.90
51922;DHT22;37948;53.260;6.394;2022-07-03T02:37:39;16.60;99.90
51922;DHT22;37948;53.260;6.394;2022-07-03T02:40:50;16.70;99.90
51922;DHT22;37948;53.260;6.394;2022-07-03T02:43:38;16.70;99.90
51922;DHT22;37948;53.260;6.394;2022-07-03T02:46:37;16.60;99.90
51922;DHT22;37948;53.260;6.394;2022-07-03T02:54:59;16.50;99.90
51922;DHT22;37948;53.260;6.394;2022-07-03T02:57:30;16.40;99.90
51922;DHT22;37948;53.260;6.394;2022-07-03T03:00:04;16.30;99.90
51922;DHT22;37948;53.260;6.394;2022-07-03T03:05:16;16.10;99.90
51922;DHT22;37948;53.260;6.394;2022-07-03T03:08:16;16.00;99.90
51922;DHT22;37948;53.260;6.394;2022-07-03T03:10:46;16.00;99.90
51922;DHT22;37948;53.260;6.394;2022-07-03T03:13:14;16.00;99.90
51922;DHT22;37948;53.260;6.394;2022-07-03T03:15:58;16.00;99.90
51922;DHT22;37948;53.260;6.394;2022-07-03T03:18:24;15.90;99.90
51922;DHT22;37948;53.260;6.394;2022-07-03T03:20:56;15.80;99.90
51922;DHT22;37948;53.260;6.394;2022-07-03T03:23:35;15.90;99.90
51922;DHT22;37948;53.260;6.394;2022-07-03T03:26:03;15.90;99.90
51922;DHT22;37948;53.260;6.394;2022-07-03T03:28:29;15.90;99.90
51922;DHT22;37948;53.260;6.394;2022-07-03T03:30:55;15.90;99.90
51922;DHT22;37948;53.260;6.394;2022-07-03T03:33:22;15.90;99.90
51922;DHT22;37948;53.260;6.394;2022-07-03T03:35:48;15.90;99.90
51922;DHT22;37948;53.260;6.394;2022-07-03T03:38:14;15.90;99.90
51922;DHT22;37948;53.260;6.394;2022-07-03T03:40:40;16.00;99.90
51922;DHT22;37948;53.260;6.394;2022-07-03T03:43:06;16.00;99.90
51922;DHT22;37948;53.260;6.394;2022-07-03T03:45:31;16.10;99.90
51922;DHT22;37948;53.260;6.394;2022-07-03T03:47:57;16.10;99.90
51922;DHT22;37948;53.260;6.394;2022-07-03T03:50:22;16.20;99.90
51922;DHT22;37948;53.260;6.394;2022-07-03T03:52:48;16.30;99.90
51922;DHT22;37948;53.260;6.394;2022-07-03T03:55:14;16.20;99.90
51922;DHT22;37948;53.260;6.394;2022-07-03T03:57:40;16.30;99.90
51922;DHT22;37948;53.260;6.394;2022-07-03T04:00:06;16.40;99.90
51922;DHT22;37948;53.260;6.394;2022-07-03T04:02:32;16.40;99.90
51922;DHT22;37948;53.260;6.394;2022-07-03T04:04:58;16.40;99.90
51922;DHT22;37948;53.260;6.394;2022-07-03T04:07:23;16.40;99.90
51922;DHT22;37948;53.260;6.394;2022-07-03T04:09:49;16.40;99.90
51922;DHT22;37948;53.260;6.394;2022-07-03T04:12:15;16.40;99.90
51922;DHT22;37948;53.260;6.394;2022-07-03T04:14:41;16.40;99.90
51922;DHT22;37948;53.260;6.394;2022-07-03T04:17:06;16.50;99.90
51922;DHT22;37948;53.260;6.394;2022-07-03T04:19:32;16.50;99.90
51922;DHT22;37948;53.260;6.394;2022-07-03T04:21:57;16.50;99.90
51922;DHT22;37948;53.260;6.394;2022-07-03T04:24:23;16.50;99.90
51922;DHT22;37948;53.260;6.394;2022-07-03T04:26:49;16.60;99.90
51922;DHT22;37948;53.260;6.394;2022-07-03T04:29:14;16.60;99.90
51922;DHT22;37948;53.260;6.394;2022-07-03T04:31:40;16.60;99.90
51922;DHT22;37948;53.260;6.394;2022-07-03T04:34:06;16.70;99.90
51922;DHT22;37948;53.260;6.394;2022-07-03T04:36:32;16.70;99.90
51922;DHT22;37948;53.260;6.394;2022-07-03T04:38:58;16.80;99.90
51922;DHT22;37948;53.260;6.394;2022-07-03T04:41:23;16.80;99.90
51922;DHT22;37948;53.260;6.394;2022-07-03T04:43:49;16.80;99.90
51922;DHT22;37948;53.260;6.394;2022-07-03T04:46:14;16.90;99.90
51922;DHT22;37948;53.260;6.394;2022-07-03T04:48:40;17.00;99.90
51922;DHT22;37948;53.260;6.394;2022-07-03T04:51:05;17.00;99.90
51922;DHT22;37948;53.260;6.394;2022-07-03T04:53:31;17.10;99.90
51922;DHT22;37948;53.260;6.394;2022-07-03T04:55:57;17.20;99.90
51922;DHT22;37948;53.260;6.394;2022-07-03T04:58:22;17.20;99.90
51922;DHT22;37948;53.260;6.394;2022-07-03T05:00:48;17.30;99.90
51922;DHT22;37948;53.260;6.394;2022-07-03T05:03:13;17.30;99.90
51922;DHT22;37948;53.260;6.394;2022-07-03T05:05:39;17.30;99.90
51922;DHT22;37948;53.260;6.394;2022-07-03T05:08:05;17.40;99.90
51922;DHT22;37948;53.260;6.394;2022-07-03T05:10:31;17.40;99.90
51922;DHT22;37948;53.260;6.394;2022-07-03T05:12:57;17.40;99.90
51922;DHT22;37948;53.260;6.394;2022-07-03T05:15:22;17.40;99.90
51922;DHT22;37948;53.260;6.394;2022-07-03T05:17:49;17.40;99.90
51922;DHT22;37948;53.260;6.394;2022-07-03T05:20:14;17.40;99.90
51922;DHT22;37948;53.260;6.394;2022-07-03T05:22:59;17.40;99.90
51922;DHT22;37948;53.260;6.394;2022-07-03T05:25:26;17.40;99.90
51922;DHT22;37948;53.260;6.394;2022-07-03T05:27:52;17.40;99.90
51922;DHT22;37948;53.260;6.394;2022-07-03T05:30:22;17.50;99.90
51922;DHT22;37948;53.260;6.394;2022-07-03T05:32:48;17.50;99.90
51922;DHT22;37948;53.260;6.394;2022-07-03T05:35:14;17.50;99.90
51922;DHT22;37948;53.260;6.394;2022-07-03T05:37:39;17.50;99.90
51922;DHT22;37948;53.260;6.394;2022-07-03T05:40:06;17.50;99.90
51922;DHT22;37948;53.260;6.394;2022-07-03T05:42:32;17.50;99.90
51922;DHT22;37948;53.260;6.394;2022-07-03T05:44:58;17.60;99.90
51922;DHT22;37948;53.260;6.394;2022-07-03T05:47:23;17.60;99.90
51922;DHT22;37948;53.260;6.394;2022-07-03T05:49:49;17.60;99.90
51922;DHT22;37948;53.260;6.394;2022-07-03T05:52:15;17.60;99.90
51922;DHT22;37948;53.260;6.394;2022-07-03T05:54:41;17.60;99.90
51922;DHT22;37948;53.260;6.394;2022-07-03T05:57:07;17.70;99.90
51922;DHT22;37948;53.260;6.394;2022-07-03T05:59:33;17.70;99.90
51922;DHT22;37948;53.260;6.394;2022-07-03T06:01:58;17.80;99.90
51922;DHT22;37948;53.260;6.394;2022-07-03T06:04:24;17.80;99.90
51922;DHT22;37948;53.260;6.394;2022-07-03T06:06:49;17.90;99.90
51922;DHT22;37948;53.260;6.394;2022-07-03T06:09:15;17.90;99.90
51922;DHT22;37948;53.260;6.394;2022-07-03T06:11:41;17.90;99.90
51922;DHT22;37948;53.260;6.394;2022-07-03T06:14:06;18.00;99.90
51922;DHT22;37948;53.260;6.394;2022-07-03T06:16:32;18.10;99.90
51922;DHT22;37948;53.260;6.394;2022-07-03T06:18:58;18.10;99.90
51922;DHT22;37948;53.260;6.394;2022-07-03T06:21:24;18.10;99.90
51922;DHT22;37948;53.260;6.394;2022-07-03T06:23:50;18.10;99.90
51922;DHT22;37948;53.260;6.394;2022-07-03T06:26:15;18.10;99.90
51922;DHT22;37948;53.260;6.394;2022-07-03T06:28:41;18.10;99.90
51922;DHT22;37948;53.260;6.394;2022-07-03T06:31:07;18.20;99.90
51922;DHT22;37948;53.260;6.394;2022-07-03T06:33:32;18.20;99.90
51922;DHT22;37948;53.260;6.394;2022-07-03T06:35:58;18.10;99.90
51922;DHT22;37948;53.260;6.394;2022-07-03T06:38:24;18.20;99.90
51922;DHT22;37948;53.260;6.394;2022-07-03T06:40:49;18.20;99.90
51922;DHT22;37948;53.260;6.394;2022-07-03T06:43:15;18.30;99.90
51922;DHT22;37948;53.260;6.394;2022-07-03T06:45:40;18.30;99.90
51922;DHT22;37948;53.260;6.394;2022-07-03T06:48:06;18.30;99.90
51922;DHT22;37948;53.260;6.394;2022-07-03T06:50:32;18.30;99.90
51922;DHT22;37948;53.260;6.394;2022-07-03T06:52:57;18.30;99.90
51922;DHT22;37948;53.260;6.394;2022-07-03T06:55:23;18.30;99.90
51922;DHT22;37948;53.260;6.394;2022-07-03T06:57:48;18.20;99.90
51922;DHT22;37948;53.260;6.394;2022-07-03T07:00:14;18.20;99.90
51922;DHT22;37948;53.260;6.394;2022-07-03T07:02:40;18.20;99.90
51922;DHT22;37948;53.260;6.394;2022-07-03T07:05:05;18.20;99.90
51922;DHT22;37948;53.260;6.394;2022-07-03T07:07:31;18.30;99.90
51922;DHT22;37948;53.260;6.394;2022-07-03T07:09:57;18.40;99.90
51922;DHT22;37948;53.260;6.394;2022-07-03T07:12:22;18.50;99.90
51922;DHT22;37948;53.260;6.394;2022-07-03T07:14:48;18.50;99.90
51922;DHT22;37948;53.260;6.394;2022-07-03T07:17:13;18.60;99.90
51922;DHT22;37948;53.260;6.394;2022-07-03T07:19:39;18.60;99.90
51922;DHT22;37948;53.260;6.394;2022-07-03T07:22:05;18.60;99.90
51922;DHT22;37948;53.260;6.394;2022-07-03T07:24:30;18.60;99.90
51922;DHT22;37948;53.260;6.394;2022-07-03T07:26:56;18.60;99.90
51922;DHT22;37948;53.260;6.394;2022-07-03T07:29:21;18.60;99.90
51922;DHT22;37948;53.260;6.394;2022-07-03T07:31:47;18.50;99.90
51922;DHT22;37948;53.260;6.394;2022-07-03T07:34:12;18.60;99.90
51922;DHT22;37948;53.260;6.394;2022-07-03T07:36:39;18.60;99.90
51922;DHT22;37948;53.260;6.394;2022-07-03T07:39:04;18.60;99.90
51922;DHT22;37948;53.260;6.394;2022-07-03T07:41:30;18.70;99.90
51922;DHT22;37948;53.260;6.394;2022-07-03T07:43:56;18.80;99.90
51922;DHT22;37948;53.260;6.394;2022-07-03T07:46:21;19.00;99.90
51922;DHT22;37948;53.260;6.394;2022-07-03T07:48:47;19.10;99.90
51922;DHT22;37948;53.260;6.394;2022-07-03T07:51:12;19.20;99.90
51922;DHT22;37948;53.260;6.394;2022-07-03T07:53:38;19.30;99.90
51922;DHT22;37948;53.260;6.394;2022-07-03T07:56:04;19.40;99.90
51922;DHT22;37948;53.260;6.394;2022-07-03T07:58:29;19.50;99.90
51922;DHT22;37948;53.260;6.394;2022-07-03T08:00:55;19.60;99.90
51922;DHT22;37948;53.260;6.394;2022-07-03T08:03:39;19.60;99.90
51922;DHT22;37948;53.260;6.394;2022-07-03T08:06:24;19.50;99.90
51922;DHT22;37948;53.260;6.394;2022-07-03T08:08:49;19.50;99.90
51922;DHT22;37948;53.260;6.394;2022-07-03T08:11:15;19.60;99.90
51922;DHT22;37948;53.260;6.394;2022-07-03T08:13:40;19.60;99.90
51922;DHT22;37948;53.260;6.394;2022-07-03T08:16:06;19.70;99.90
51922;DHT22;37948;53.260;6.394;2022-07-03T08:18:32;19.80;99.90
51922;DHT22;37948;53.260;6.394;2022-07-03T08:20:57;20.00;99.90
51922;DHT22;37948;53.260;6.394;2022-07-03T08:23:23;20.00;99.90
51922;DHT22;37948;53.260;6.394;2022-07-03T08:25:48;20.10;99.90
51922;DHT22;37948;53.260;6.394;2022-07-03T08:28:14;20.20;99.90
51922;DHT22;37948;53.260;6.394;2022-07-03T08:30:40;20.30;99.90
51922;DHT22;37948;53.260;6.394;2022-07-03T08:33:05;20.40;99.90
51922;DHT22;37948;53.260;6.394;2022-07-03T08:35:31;20.50;99.90
51922;DHT22;37948;53.260;6.394;2022-07-03T08:37:56;20.50;99.90
51922;DHT22;37948;53.260;6.394;2022-07-03T08:40:22;20.60;99.90
51922;DHT22;37948;53.260;6.394;2022-07-03T08:42:53;20.60;99.90
51922;DHT22;37948;53.260;6.394;2022-07-03T08:45:21;20.70;99.90
51922;DHT22;37948;53.260;6.394;2022-07-03T08:47:48;20.70;99.90
51922;DHT22;37948;53.260;6.394;2022-07-03T08:50:16;20.70;99.90
51922;DHT22;37948;53.260;6.394;2022-07-03T08:52:43;20.80;99.90
51922;DHT22;37948;53.260;6.394;2022-07-03T08:55:10;20.80;99.90
51922;DHT22;37948;53.260;6.394;2022-07-03T08:57:37;20.90;99.90
51922;DHT22;37948;53.260;6.394;2022-07-03T09:00:05;21.00;99.90
51922;DHT22;37948;53.260;6.394;2022-07-03T09:02:31;21.00;99.90
51922;DHT22;37948;53.260;6.394;2022-07-03T09:04:58;21.00;99.90
51922;DHT22;37948;53.260;6.394;2022-07-03T09:07:26;21.10;99.90
51922;DHT22;37948;53.260;6.394;2022-07-03T09:09:51;21.20;99.90
51922;DHT22;37948;53.260;6.394;2022-07-03T09:12:17;21.20;99.90
51922;DHT22;37948;53.260;6.394;2022-07-03T09:14:43;21.20;99.90
51922;DHT22;37948;53.260;6.394;2022-07-03T09:17:10;21.30;99.90
51922;DHT22;37948;53.260;6.394;2022-07-03T09:19:46;21.30;99.90
51922;DHT22;37948;53.260;6.394;2022-07-03T09:22:23;21.40;99.90
51922;DHT22;37948;53.260;6.394;2022-07-03T09:24:51;21.40;99.90
51922;DHT22;37948;53.260;6.394;2022-07-03T09:27:19;21.40;99.90
51922;DHT22;37948;53.260;6.394;2022-07-03T09:30:00;21.40;99.90
51922;DHT22;37948;53.260;6.394;2022-07-03T09:32:47;21.50;99.90
51922;DHT22;37948;53.260;6.394;2022-07-03T09:35:21;21.50;99.90
51922;DHT22;37948;53.260;6.394;2022-07-03T09:37:58;21.60;99.90
51922;DHT22;37948;53.260;6.394;2022-07-03T09:40:26;21.70;99.90
51922;DHT22;37948;53.260;6.394;2022-07-03T09:43:06;21.80;99.90
51922;DHT22;37948;53.260;6.394;2022-07-03T09:45:53;21.80;99.90
51922;DHT22;37948;53.260;6.394;2022-07-03T09:48:30;21.90;99.90
51922;DHT22;37948;53.260;6.394;2022-07-03T09:51:21;21.90;99.90
51922;DHT22;37948;53.260;6.394;2022-07-03T09:53:52;21.80;99.90
51922;DHT22;37948;53.260;6.394;2022-07-03T09:56:19;21.70;99.90
51922;DHT22;37948;53.260;6.394;2022-07-03T09:59:10;21.70;99.90
51922;DHT22;37948;53.260;6.394;2022-07-03T10:01:46;21.60;99.90
51922;DHT22;37948;53.260;6.394;2022-07-03T10:04:38;21.70;99.90
51922;DHT22;37948;53.260;6.394;2022-07-03T10:07:03;21.80;99.90
51922;DHT22;37948;53.260;6.394;2022-07-03T10:09:31;21.80;99.90
51922;DHT22;37948;53.260;6.394;2022-07-03T10:11:59;21.90;99.90
51922;DHT22;37948;53.260;6.394;2022-07-03T10:14:27;21.90;99.90
51922;DHT22;37948;53.260;6.394;2022-07-03T10:16:53;22.10;99.90
51922;DHT22;37948;53.260;6.394;2022-07-03T10:19:22;22.10;99.90
51922;DHT22;37948;53.260;6.394;2022-07-03T10:21:53;22.20;99.90
51922;DHT22;37948;53.260;6.394;2022-07-03T10:24:22;22.10;99.90
51922;DHT22;37948;53.260;6.394;2022-07-03T10:26:49;22.10;99.90
51922;DHT22;37948;53.260;6.394;2022-07-03T10:29:15;22.10;99.90
51922;DHT22;37948;53.260;6.394;2022-07-03T10:31:45;22.20;99.90
51922;DHT22;37948;53.260;6.394;2022-07-03T10:34:16;22.30;99.90
51922;DHT22;37948;53.260;6.394;2022-07-03T10:36:43;22.40;99.90
51922;DHT22;37948;53.260;6.394;2022-07-03T10:39:14;22.40;99.90
51922;DHT22;37948;53.260;6.394;2022-07-03T10:41:47;22.50;99.90
51922;DHT22;37948;53.260;6.394;2022-07-03T10:44:34;22.50;99.90
51922;DHT22;37948;53.260;6.394;2022-07-03T10:47:46;22.60;99.90
51922;DHT22;37948;53.260;6.394;2022-07-03T10:52:40;22.80;99.90
51922;DHT22;37948;53.260;6.394;2022-07-03T10:55:06;22.80;99.90
51922;DHT22;37948;53.260;6.394;2022-07-03T10:57:34;22.80;99.90
51922;DHT22;37948;53.260;6.394;2022-07-03T11:00:00;22.90;99.90
51922;DHT22;37948;53.260;6.394;2022-07-03T11:02:33;23.00;99.90
51922;DHT22;37948;53.260;6.394;2022-07-03T11:07:39;22.80;99.90
51922;DHT22;37948;53.260;6.394;2022-07-03T11:15:41;22.30;99.90
51922;DHT22;37948;53.260;6.394;2022-07-03T11:18:27;22.40;99.90
51922;DHT22;37948;53.260;6.394;2022-07-03T11:26:20;22.00;99.90
51922;DHT22;37948;53.260;6.394;2022-07-03T11:43:56;22.30;99.90
51922;DHT22;37948;53.260;6.394;2022-07-03T11:46:26;22.40;99.90
51922;DHT22;37948;53.260;6.394;2022-07-03T11:49:08;22.50;99.90
51922;DHT22;37948;53.260;6.394;2022-07-03T11:51:35;22.30;99.90
51922;DHT22;37948;53.260;6.394;2022-07-03T11:54:02;22.10;99.90
51922;DHT22;37948;53.260;6.394;2022-07-03T11:56:28;22.00;99.90
51922;DHT22;37948;53.260;6.394;2022-07-03T11:58:55;21.80;99.90
51922;DHT22;37948;53.260;6.394;2022-07-03T12:03:47;21.70;99.90
51922;DHT22;37948;53.260;6.394;2022-07-03T12:06:13;21.70;99.90
51922;DHT22;37948;53.260;6.394;2022-07-03T12:08:38;21.70;99.90
51922;DHT22;37948;53.260;6.394;2022-07-03T12:11:09;21.60;99.90
51922;DHT22;37948;53.260;6.394;2022-07-03T12:13:35;21.60;99.90
51922;DHT22;37948;53.260;6.394;2022-07-03T12:18:48;21.70;99.90
51922;DHT22;37948;53.260;6.394;2022-07-03T12:21:15;21.80;99.90
51922;DHT22;37948;53.260;6.394;2022-07-03T12:23:55;21.90;99.90
51922;DHT22;37948;53.260;6.394;2022-07-03T12:26:31;22.00;99.90
51922;DHT22;37948;53.260;6.394;2022-07-03T12:29:02;22.10;99.90
51922;DHT22;37948;53.260;6.394;2022-07-03T12:31:28;22.10;99.90
51922;DHT22;37948;53.260;6.394;2022-07-03T12:33:55;21.90;99.90
51922;DHT22;37948;53.260;6.394;2022-07-03T12:36:21;21.80;99.90
51922;DHT22;37948;53.260;6.394;2022-07-03T12:38:48;21.60;99.90
51922;DHT22;37948;53.260;6.394;2022-07-03T12:41:15;21.60;99.90
51922;DHT22;37948;53.260;6.394;2022-07-03T12:43:44;21.60;99.90
51922;DHT22;37948;53.260;6.394;2022-07-03T12:46:23;21.60;99.90
51922;DHT22;37948;53.260;6.394;2022-07-03T12:48:56;21.60;99.90
51922;DHT22;37948;53.260;6.394;2022-07-03T12:51:42;21.60;99.90
51922;DHT22;37948;53.260;6.394;2022-07-03T12:57:05;21.80;99.90
51922;DHT22;37948;53.260;6.394;2022-07-03T13:00:21;22.10;99.90
51922;DHT22;37948;53.260;6.394;2022-07-03T13:02:48;22.30;99.90
51922;DHT22;37948;53.260;6.394;2022-07-03T13:05:20;22.30;99.90
51922;DHT22;37948;53.260;6.394;2022-07-03T13:07:48;22.40;99.90
51922;DHT22;37948;53.260;6.394;2022-07-03T13:10:15;22.30;99.90
51922;DHT22;37948;53.260;6.394;2022-07-03T13:12:51;22.10;99.90
51922;DHT22;37948;53.260;6.394;2022-07-03T13:15:18;21.80;99.90
51922;DHT22;37948;53.260;6.394;2022-07-03T13:20:24;21.50;99.90
51922;DHT22;37948;53.260;6.394;2022-07-03T13:22:51;21.40;99.90
51922;DHT22;37948;53.260;6.394;2022-07-03T13:25:16;21.20;99.90
51922;DHT22;37948;53.260;6.394;2022-07-03T13:27:42;21.20;99.90
51922;DHT22;37948;53.260;6.394;2022-07-03T13:30:14;21.10;99.90
51922;DHT22;37948;53.260;6.394;2022-07-03T13:32:41;21.10;99.90
51922;DHT22;37948;53.260;6.394;2022-07-03T13:35:07;21.00;99.90
51922;DHT22;37948;53.260;6.394;2022-07-03T13:37:33;21.00;99.90
51922;DHT22;37948;53.260;6.394;2022-07-03T13:39:59;21.00;99.90
51922;DHT22;37948;53.260;6.394;2022-07-03T13:42:25;21.00;99.90
51922;DHT22;37948;53.260;6.394;2022-07-03T13:44:51;21.00;99.90
51922;DHT22;37948;53.260;6.394;2022-07-03T13:47:16;20.80;99.90
51922;DHT22;37948;53.260;6.394;2022-07-03T13:49:42;20.80;99.90
51922;DHT22;37948;53.260;6.394;2022-07-03T13:52:08;20.60;99.90
51922;DHT22;37948;53.260;6.394;2022-07-03T13:54:34;20.60;99.90
51922;DHT22;37948;53.260;6.394;2022-07-03T13:57:00;20.40;99.90
51922;DHT22;37948;53.260;6.394;2022-07-03T13:59:26;20.30;99.90
51922;DHT22;37948;53.260;6.394;2022-07-03T14:01:52;20.00;99.90
51922;DHT22;37948;53.260;6.394;2022-07-03T14:04:17;19.80;99.90
51922;DHT22;37948;53.260;6.394;2022-07-03T14:06:43;19.50;99.90
51922;DHT22;37948;53.260;6.394;2022-07-03T14:09:09;19.30;99.90
51922;DHT22;37948;53.260;6.394;2022-07-03T14:11:34;19.10;99.90
51922;DHT22;37948;53.260;6.394;2022-07-03T14:14:00;18.90;99.90
51922;DHT22;37948;53.260;6.394;2022-07-03T14:16:25;18.80;99.90
51922;DHT22;37948;53.260;6.394;2022-07-03T14:18:51;18.80;99.90
51922;DHT22;37948;53.260;6.394;2022-07-03T14:21:16;18.70;99.90
51922;DHT22;37948;53.260;6.394;2022-07-03T14:23:42;18.70;99.90
51922;DHT22;37948;53.260;6.394;2022-07-03T14:26:08;18.70;99.90
51922;DHT22;37948;53.260;6.394;2022-07-03T14:28:33;18.70;99.90
51922;DHT22;37948;53.260;6.394;2022-07-03T14:31:17;18.60;99.90
51922;DHT22;37948;53.260;6.394;2022-07-03T14:33:43;18.60;99.90
51922;DHT22;37948;53.260;6.394;2022-07-03T14:36:09;18.50;99.90
51922;DHT22;37948;53.260;6.394;2022-07-03T14:38:34;18.40;99.90
51922;DHT22;37948;53.260;6.394;2022-07-03T14:41:00;18.40;99.90
51922;DHT22;37948;53.260;6.394;2022-07-03T14:43:25;18.40;99.90
51922;DHT22;37948;53.260;6.394;2022-07-03T14:45:51;18.50;99.90
51922;DHT22;37948;53.260;6.394;2022-07-03T14:48:17;18.50;99.90
51922;DHT22;37948;53.260;6.394;2022-07-03T14:50:42;18.50;99.90
51922;DHT22;37948;53.260;6.394;2022-07-03T14:53:08;18.50;99.90
51922;DHT22;37948;53.260;6.394;2022-07-03T14:55:37;18.50;99.90
51922;DHT22;37948;53.260;6.394;2022-07-03T14:58:19;18.40;99.90
51922;DHT22;37948;53.260;6.394;2022-07-03T15:00:52;18.50;99.90
51922;DHT22;37948;53.260;6.394;2022-07-03T15:03:32;18.50;99.90
51922;DHT22;37948;53.260;6.394;2022-07-03T15:06:02;18.50;99.90
51922;DHT22;37948;53.260;6.394;2022-07-03T15:09:11;18.50;99.90
51922;DHT22;37948;53.260;6.394;2022-07-03T15:11:52;18.50;99.90
51922;DHT22;37948;53.260;6.394;2022-07-03T15:14:39;18.50;99.90
51922;DHT22;37948;53.260;6.394;2022-07-03T15:17:07;18.40;99.90
51922;DHT22;37948;53.260;6.394;2022-07-03T15:19:34;18.50;99.90
51922;DHT22;37948;53.260;6.394;2022-07-03T15:22:02;18.50;99.90
51922;DHT22;37948;53.260;6.394;2022-07-03T15:24:30;18.50;99.90
51922;DHT22;37948;53.260;6.394;2022-07-03T15:26:56;18.50;99.90
51922;DHT22;37948;53.260;6.394;2022-07-03T15:29:22;18.50;99.90
51922;DHT22;37948;53.260;6.394;2022-07-03T15:31:49;18.60;99.90
51922;DHT22;37948;53.260;6.394;2022-07-03T15:34:15;18.60;99.90
51922;DHT22;37948;53.260;6.394;2022-07-03T15:37:04;18.60;99.90
51922;DHT22;37948;53.260;6.394;2022-07-03T15:39:48;18.60;99.90
51922;DHT22;37948;53.260;6.394;2022-07-03T15:42:28;18.60;99.90
51922;DHT22;37948;53.260;6.394;2022-07-03T15:45:07;18.50;99.90
51922;DHT22;37948;53.260;6.394;2022-07-03T15:50:57;18.30;99.90
51922;DHT22;37948;53.260;6.394;2022-07-03T15:53:19;18.30;99.90
51922;DHT22;37948;53.260;6.394;2022-07-03T15:55:46;18.20;99.90
51922;DHT22;37948;53.260;6.394;2022-07-03T15:58:14;18.20;99.90
51922;DHT22;37948;53.260;6.394;2022-07-03T16:00:40;18.20;99.90
51922;DHT22;37948;53.260;6.394;2022-07-03T16:05:50;18.10;99.90
51922;DHT22;37948;53.260;6.394;2022-07-03T16:08:17;18.20;99.90
51922;DHT22;37948;53.260;6.394;2022-07-03T16:10:43;18.10;99.90
51922;DHT22;37948;53.260;6.394;2022-07-03T16:13:09;18.20;99.90
51922;DHT22;37948;53.260;6.394;2022-07-03T16:15:40;18.20;99.90
51922;DHT22;37948;53.260;6.394;2022-07-03T16:18:07;18.20;99.90
51922;DHT22;37948;53.260;6.394;2022-07-03T16:20:34;18.20;99.90
51922;DHT22;37948;53.260;6.394;2022-07-03T16:23:08;18.10;99.90
51922;DHT22;37948;53.260;6.394;2022-07-03T16:25:35;18.20;99.90
51922;DHT22;37948;53.260;6.394;2022-07-03T16:28:03;18.10;99.90
51922;DHT22;37948;53.260;6.394;2022-07-03T16:30:30;18.10;99.90
51922;DHT22;37948;53.260;6.394;2022-07-03T16:32:56;18.10;99.90
51922;DHT22;37948;53.260;6.394;2022-07-03T16:35:41;18.10;99.90
51922;DHT22;37948;53.260;6.394;2022-07-03T16:38:09;18.10;99.90
51922;DHT22;37948;53.260;6.394;2022-07-03T16:40:36;18.20;99.90
51922;DHT22;37948;53.260;6.394;2022-07-03T16:43:03;18.20;99.90
51922;DHT22;37948;53.260;6.394;2022-07-03T16:45:33;18.20;99.90
51922;DHT22;37948;53.260;6.394;2022-07-03T16:48:17;18.20;99.90
51922;DHT22;37948;53.260;6.394;2022-07-03T16:50:56;18.30;99.90
51922;DHT22;37948;53.260;6.394;2022-07-03T16:53:23;18.30;99.90